Time;durP1;ratioP1;P1;durP2;ratioP2;P2;SDS_P1;SDS_P2;PMS_P1;PMS_P2;Temp;Humidity;BMP_temperature;BMP_pressure;BME280_temperature;BME280_humidity;BME280_pressure;Samples;Min_cycle;Max_cycle;Signal;HPM_P1;HPM_P2
2024/02/05 00:00:01;;;;;;;0.70;0.70;;;0.30;99.90;;;;;;5093707;28;20212;-74
2024/02/05 00:02:28;;;;;;;0.80;0.80;;;0.40;99.90;;;;;;5093496;28;20231;-73
2024/02/05 00:04:54;;;;;;;0.70;0.70;;;0.50;99.90;;;;;;5093432;28;20190;-73
2024/02/05 00:07:20;;;;;;;0.70;0.70;;;0.50;99.90;;;;;;5093211;28;20556;-73
2024/02/05 00:09:47;;;;;;;0.75;0.75;;;0.50;99.90;;;;;;5093330;28;20291;-73
2024/02/05 00:12:31;;;;;;;0.80;0.80;;;0.50;99.90;;;;;;5093301;28;20189;-73
2024/02/05 00:18:00;;;;;;;0.80;0.80;;;0.50;99.90;;;;;;5093495;28;20211;-73
2024/02/05 00:20:26;;;;;;;0.80;0.80;;;0.40;99.90;;;;;;5093453;28;20664;-71
2024/02/05 00:22:51;;;;;;;0.88;0.85;;;0.40;99.90;;;;;;5093534;28;20727;-71
2024/02/05 00:25:19;;;;;;;0.80;0.80;;;0.40;99.90;;;;;;5093250;28;20219;-71
2024/02/05 00:31:07;;;;;;;0.80;0.80;;;0.40;99.90;;;;;;5113650;28;20230;-71
2024/02/05 00:33:33;;;;;;;0.70;0.70;;;0.30;99.90;;;;;;5113513;28;20215;-71
2024/02/05 00:35:58;;;;;;;0.70;0.70;;;0.30;99.90;;;;;;5113777;28;20183;-71
2024/02/05 00:38:24;;;;;;;0.65;0.65;;;0.40;99.90;;;;;;5113271;28;20191;-71
2024/02/05 00:40:51;;;;;;;0.70;0.70;;;0.50;99.90;;;;;;5108288;28;20200;-71
2024/02/05 00:43:17;;;;;;;0.80;0.80;;;0.50;99.90;;;;;;5093819;28;20713;-71
2024/02/05 00:45:42;;;;;;;0.70;0.70;;;0.60;99.90;;;;;;5075304;28;20196;-71
2024/02/05 00:48:08;;;;;;;0.80;0.80;;;0.50;99.90;;;;;;5093727;28;20267;-71
2024/02/05 00:50:34;;;;;;;0.80;0.80;;;0.60;99.90;;;;;;5093181;28;20211;-70
2024/02/05 00:52:59;;;;;;;0.60;0.60;;;0.60;99.90;;;;;;5093343;28;20199;-71
2024/02/05 00:55:26;;;;;;;0.70;0.70;;;0.70;99.90;;;;;;5093047;28;20227;-70
2024/02/05 00:57:52;;;;;;;0.60;0.60;;;0.70;99.90;;;;;;5093098;28;20206;-71
2024/02/05 01:00:18;;;;;;;0.70;0.70;;;0.60;99.90;;;;;;5093450;28;20734;-71
2024/02/05 01:02:43;;;;;;;0.68;0.68;;;0.70;99.90;;;;;;5094698;28;20223;-71
2024/02/05 01:05:09;;;;;;;0.82;0.82;;;0.60;99.90;;;;;;5094384;28;20235;-71
2024/02/05 01:07:36;;;;;;;0.70;0.70;;;0.50;99.90;;;;;;5076309;28;20203;-71
2024/02/05 01:10:02;;;;;;;0.75;0.75;;;0.50;99.90;;;;;;5095039;28;20192;-71
2024/02/05 01:12:27;;;;;;;0.60;0.60;;;0.50;99.90;;;;;;5074656;28;20670;-71
2024/02/05 01:14:53;;;;;;;0.70;0.70;;;0.50;99.90;;;;;;5074686;28;20245;-71
2024/02/05 01:17:19;;;;;;;0.70;0.70;;;0.50;99.90;;;;;;5092637;28;20325;-71
2024/02/05 01:19:48;;;;;;;6.53;2.35;;;0.50;99.90;;;;;;5093067;28;20204;-71
2024/02/05 01:22:13;;;;;;;0.68;0.68;;;0.50;99.90;;;;;;5097538;28;20183;-71
2024/02/05 01:24:39;;;;;;;0.68;0.68;;;0.40;99.90;;;;;;5112838;28;20191;-71
2024/02/05 01:27:05;;;;;;;0.60;0.60;;;0.40;99.90;;;;;;5112457;28;20227;-70
2024/02/05 01:29:30;;;;;;;0.73;0.73;;;0.50;99.90;;;;;;5116920;28;20191;-67
2024/02/05 01:31:56;;;;;;;0.73;0.73;;;0.40;99.90;;;;;;5116732;28;20191;-67
2024/02/05 01:34:22;;;;;;;0.70;0.70;;;0.20;99.90;;;;;;5116384;28;20196;-68
2024/02/05 01:36:47;;;;;;;0.80;0.80;;;0.30;99.90;;;;;;5116614;28;20237;-68
2024/02/05 01:39:15;;;;;;;0.70;0.70;;;0.30;99.90;;;;;;5116587;28;20683;-67
2024/02/05 01:41:41;;;;;;;0.70;0.70;;;0.20;99.90;;;;;;5085232;28;20200;-67
2024/02/05 01:44:07;;;;;;;0.70;0.70;;;0.20;99.90;;;;;;5096140;28;20191;-67
2024/02/05 01:46:35;;;;;;;0.63;0.63;;;0.20;99.90;;;;;;5095873;28;20725;-68
2024/02/05 01:49:06;;;;;;;0.70;0.70;;;0.10;99.90;;;;;;5096119;28;20599;-67
2024/02/05 01:51:40;;;;;;;0.70;0.70;;;0.10;99.90;;;;;;5095853;28;20214;-67
2024/02/05 01:54:09;;;;;;;0.80;0.80;;;0.30;99.90;;;;;;5095935;28;20209;-68
2024/02/05 01:56:36;;;;;;;0.63;0.63;;;0.30;99.90;;;;;;5095714;28;20231;-67
2024/02/05 01:59:03;;;;;;;0.60;0.60;;;0.40;99.90;;;;;;5077624;28;20202;-67
2024/02/05 02:01:31;;;;;;;0.70;0.70;;;0.40;99.90;;;;;;5077090;28;20195;-67
2024/02/05 02:03:58;;;;;;;0.60;0.60;;;0.40;99.90;;;;;;5096528;28;20208;-67
2024/02/05 02:06:24;;;;;;;0.73;0.73;;;0.30;99.90;;;;;;5095338;28;20567;-68
2024/02/05 02:08:50;;;;;;;0.70;0.70;;;0.30;99.90;;;;;;5095548;28;20207;-67
2024/02/05 02:11:16;;;;;;;0.80;0.80;;;0.20;99.90;;;;;;5095382;28;20184;-68
2024/02/05 02:13:43;;;;;;;0.60;0.60;;;0.30;99.90;;;;;;5095145;28;20532;-68
2024/02/05 02:16:14;;;;;;;0.70;0.70;;;0.30;99.90;;;;;;5095376;28;20270;-67
2024/02/05 02:18:41;;;;;;;0.80;0.80;;;0.40;99.90;;;;;;5101624;28;20672;-67
2024/02/05 02:21:09;;;;;;;0.70;0.70;;;0.30;99.90;;;;;;5115163;28;20203;-67
2024/02/05 02:23:35;;;;;;;0.70;0.70;;;0.20;99.90;;;;;;5115080;28;20199;-68
2024/02/05 02:26:01;;;;;;;0.70;0.70;;;0.20;99.90;;;;;;5115481;28;20241;-67
2024/02/05 02:28:27;;;;;;;0.70;0.70;;;0.20;99.90;;;;;;5115501;28;20560;-68
2024/02/05 02:30:54;;;;;;;0.70;0.70;;;0.20;99.90;;;;;;5115649;28;20651;-68
2024/02/05 02:33:41;;;;;;;0.82;0.82;;;0.30;99.90;;;;;;5115471;28;20240;-67
2024/02/05 02:36:11;;;;;;;0.73;0.73;;;0.30;99.90;;;;;;5115454;28;20631;-68
2024/02/05 02:39:00;;;;;;;0.70;0.70;;;0.20;99.90;;;;;;5115022;28;20196;-74
2024/02/05 02:41:28;;;;;;;0.70;0.70;;;0.20;99.90;;;;;;5104409;28;20188;-74
2024/02/05 02:43:59;;;;;;;0.70;0.70;;;0.20;99.90;;;;;;5094887;28;20220;-74
2024/02/05 02:46:28;;;;;;;0.70;0.70;;;0.10;99.90;;;;;;5076564;28;20292;-74
2024/02/05 02:48:54;;;;;;;0.90;0.90;;;0.10;99.90;;;;;;5076770;28;20279;-74
2024/02/05 02:51:20;;;;;;;0.70;0.70;;;0.10;99.90;;;;;;5094750;28;20207;-73
2024/02/05 02:53:45;;;;;;;0.85;0.85;;;0.20;99.90;;;;;;5094763;28;20192;-73
2024/02/05 02:56:11;;;;;;;0.80;0.80;;;0.20;99.90;;;;;;5094593;28;20226;-73
2024/02/05 02:58:37;;;;;;;0.77;0.77;;;0.20;99.90;;;;;;5094515;28;20287;-73
2024/02/05 03:01:03;;;;;;;0.80;0.80;;;0.20;99.90;;;;;;5095070;28;20287;-73
2024/02/05 03:03:29;;;;;;;0.80;0.80;;;0.10;99.90;;;;;;5094415;28;20626;-73
2024/02/05 03:05:55;;;;;;;0.70;0.70;;;0.10;99.90;;;;;;5094464;28;20188;-73
2024/02/05 03:08:20;;;;;;;0.65;0.65;;;0.10;99.90;;;;;;5094407;28;20195;-73
2024/02/05 03:10:46;;;;;;;0.70;0.70;;;0.10;99.90;;;;;;5094387;28;20274;-74
2024/02/05 03:13:12;;;;;;;0.70;0.70;;;0.00;99.90;;;;;;5094429;28;20231;-74
2024/02/05 03:15:38;;;;;;;0.68;0.68;;;0.00;99.90;;;;;;5088424;28;20200;-74
2024/02/05 03:18:04;;;;;;;0.60;0.60;;;0.00;99.90;;;;;;5114677;28;20239;-74
2024/02/05 03:20:33;;;;;;;0.70;0.70;;;0.00;99.90;;;;;;5095996;28;20208;-74
2024/02/05 03:23:00;;;;;;;0.70;0.70;;;0.00;99.90;;;;;;5076006;28;20555;-73
2024/02/05 03:25:27;;;;;;;0.70;0.70;;;0.00;99.90;;;;;;5093734;28;20184;-74
2024/02/05 03:27:54;;;;;;;0.80;0.80;;;0.00;99.90;;;;;;5094133;28;20188;-74
2024/02/05 03:30:20;;;;;;;0.80;0.80;;;0.00;99.90;;;;;;5093909;28;20596;-74
2024/02/05 03:32:46;;;;;;;0.70;0.70;;;-0.10;99.90;;;;;;5093993;28;20281;-74
2024/02/05 03:35:15;;;;;;;0.70;0.70;;;-0.10;99.90;;;;;;5093959;28;20192;-73
2024/02/05 03:37:44;;;;;;;0.70;0.70;;;-0.10;99.90;;;;;;5075628;28;20686;-74
2024/02/05 03:40:11;;;;;;;0.70;0.70;;;-0.10;99.90;;;;;;5075449;28;20261;-73
2024/02/05 03:42:37;;;;;;;0.80;0.80;;;-0.20;99.90;;;;;;5093679;28;20672;-73
2024/02/05 03:45:03;;;;;;;0.73;0.73;;;-0.20;99.90;;;;;;5075615;28;20279;-73
2024/02/05 03:47:30;;;;;;;0.70;0.70;;;-0.20;99.90;;;;;;5093621;28;20191;-73
2024/02/05 03:49:55;;;;;;;0.60;0.60;;;-0.30;99.90;;;;;;5093442;28;20727;-71
2024/02/05 03:52:21;;;;;;;0.73;0.73;;;-0.30;99.90;;;;;;5093813;28;20277;-71
2024/02/05 03:54:47;;;;;;;0.70;0.70;;;-0.20;99.90;;;;;;5093994;28;20215;-71
2024/02/05 03:57:14;;;;;;;0.60;0.60;;;-0.10;99.90;;;;;;5075861;28;20200;-69
2024/02/05 03:59:39;;;;;;;2.15;1.50;;;-0.20;99.90;;;;;;5093771;28;20668;-71
2024/02/05 04:02:06;;;;;;;0.60;0.60;;;-0.30;99.90;;;;;;5110243;28;20225;-73
2024/02/05 04:04:32;;;;;;;0.80;0.80;;;-0.40;99.90;;;;;;5108864;28;20219;-71
2024/02/05 04:06:58;;;;;;;0.80;0.80;;;-0.50;99.90;;;;;;5114557;28;20226;-70
2024/02/05 04:09:23;;;;;;;0.75;0.75;;;-0.50;99.90;;;;;;5114360;28;20217;-71
2024/02/05 04:11:49;;;;;;;0.80;0.80;;;-0.60;99.90;;;;;;5113815;28;20738;-70
2024/02/05 04:14:16;;;;;;;0.80;0.80;;;-0.60;99.90;;;;;;5114026;28;20647;-70
2024/02/05 04:16:41;;;;;;;0.70;0.70;;;-0.70;99.90;;;;;;5113275;28;20191;-70
2024/02/05 04:19:07;;;;;;;0.70;0.70;;;-0.70;99.90;;;;;;5113708;28;20780;-70
2024/02/05 04:21:32;;;;;;;0.90;0.90;;;-0.70;99.90;;;;;;5113432;28;20332;-70
2024/02/05 04:23:58;;;;;;;0.70;0.70;;;-0.70;99.90;;;;;;5113538;28;20563;-70
2024/02/05 04:26:24;;;;;;;0.70;0.70;;;-0.80;99.90;;;;;;5113020;28;20215;-71
2024/02/05 04:28:49;;;;;;;0.70;0.70;;;-0.90;99.90;;;;;;5095204;28;20207;-70
2024/02/05 04:31:15;;;;;;;0.70;0.70;;;-0.80;99.90;;;;;;5113354;28;20202;-70
2024/02/05 04:33:41;;;;;;;0.80;0.80;;;-0.90;99.90;;;;;;5113172;28;20558;-71
2024/02/05 04:36:14;;;;;;;0.70;0.70;;;-0.80;99.90;;;;;;5113235;28;20192;-71
2024/02/05 04:38:41;;;;;;;0.70;0.70;;;-0.90;99.90;;;;;;5113214;28;20202;-70
2024/02/05 04:41:08;;;;;;;0.68;0.68;;;-0.90;99.90;;;;;;5105163;28;20200;-70
2024/02/05 04:43:37;;;;;;;0.70;0.70;;;-1.00;99.90;;;;;;5074590;28;20286;-70
2024/02/05 04:46:04;;;;;;;0.80;0.80;;;-1.00;99.90;;;;;;5092856;28;20187;-70
2024/02/05 04:48:29;;;;;;;0.70;0.70;;;-1.00;99.90;;;;;;5092700;28;20238;-70
2024/02/05 04:50:55;;;;;;;0.70;0.70;;;-0.90;99.90;;;;;;5092778;28;20596;-70
2024/02/05 04:53:21;;;;;;;0.80;0.80;;;-0.90;99.90;;;;;;5092614;28;20217;-70
2024/02/05 04:55:46;;;;;;;0.90;0.90;;;-1.00;99.90;;;;;;5092602;28;20223;-70
2024/02/05 04:58:12;;;;;;;0.90;0.90;;;-1.00;99.90;;;;;;5092791;28;20563;-70
2024/02/05 05:00:38;;;;;;;0.90;0.90;;;-0.90;99.90;;;;;;5084460;28;20222;-73
2024/02/05 05:03:04;;;;;;;0.80;0.80;;;-1.00;99.90;;;;;;5098498;28;20195;-73
2024/02/05 05:05:29;;;;;;;0.80;0.80;;;-0.90;99.90;;;;;;5099000;28;20191;-74
2024/02/05 05:07:55;;;;;;;0.80;0.80;;;-0.90;99.90;;;;;;5109963;28;20247;-73
2024/02/05 05:10:21;;;;;;;0.70;0.70;;;-1.10;99.90;;;;;;5119496;27;20194;-73
2024/02/05 05:12:47;;;;;;;0.70;0.70;;;-1.20;99.90;;;;;;5103059;28;20203;-73
2024/02/05 05:15:16;;;;;;;0.90;0.90;;;-1.10;99.90;;;;;;5099117;28;20333;-73
2024/02/05 05:17:45;;;;;;;0.80;0.80;;;-1.20;99.90;;;;;;5080799;28;20676;-73
2024/02/05 05:20:12;;;;;;;0.80;0.80;;;-1.30;99.90;;;;;;5099142;28;20204;-73
2024/02/05 05:22:38;;;;;;;0.70;0.70;;;-1.50;99.90;;;;;;5098993;28;20199;-73
2024/02/05 05:25:06;;;;;;;0.90;0.90;;;-1.50;99.90;;;;;;5080993;28;20196;-74
2024/02/05 05:27:32;;;;;;;0.88;0.88;;;-1.60;99.90;;;;;;5098700;28;20663;-73
2024/02/05 05:29:57;;;;;;;0.80;0.80;;;-1.60;99.90;;;;;;5099176;28;20188;-73
2024/02/05 05:32:23;;;;;;;0.70;0.70;;;-1.60;99.90;;;;;;5098965;28;20188;-73
2024/02/05 05:34:49;;;;;;;0.60;0.60;;;-1.50;99.90;;;;;;5080778;28;20565;-73
2024/02/05 05:37:15;;;;;;;0.82;0.82;;;-1.50;99.90;;;;;;5080771;28;20200;-73
2024/02/05 05:39:40;;;;;;;0.80;0.80;;;-1.40;99.90;;;;;;5080556;28;20214;-73
2024/02/05 05:42:08;;;;;;;1.23;1.23;;;-1.60;99.90;;;;;;5098878;28;20605;-73
2024/02/05 05:44:34;;;;;;;0.80;0.80;;;-1.60;99.90;;;;;;5098892;28;20270;-73
2024/02/05 05:47:01;;;;;;;0.75;0.75;;;-1.70;99.90;;;;;;5098999;28;20726;-73
2024/02/05 05:49:27;;;;;;;0.73;0.73;;;-1.60;99.90;;;;;;5098764;28;20275;-73
2024/02/05 05:51:53;;;;;;;0.70;0.70;;;-1.60;99.90;;;;;;5080700;28;20615;-73
2024/02/05 05:54:20;;;;;;;0.90;0.90;;;-1.70;99.90;;;;;;5098636;28;20192;-73
2024/02/05 05:56:46;;;;;;;0.70;0.70;;;-1.70;99.90;;;;;;5098830;28;20192;-73
2024/02/05 05:59:12;;;;;;;0.80;0.80;;;-1.70;99.90;;;;;;5098746;28;20707;-73
2024/02/05 06:01:37;;;;;;;0.60;0.60;;;-1.70;99.90;;;;;;5080711;28;20238;-73
2024/02/05 06:04:03;;;;;;;2.90;1.63;;;-1.60;99.90;;;;;;5090505;28;20194;-73
2024/02/05 06:06:29;;;;;;;1.00;1.00;;;-1.60;99.90;;;;;;5119156;28;20209;-73
2024/02/05 06:08:54;;;;;;;0.80;0.80;;;-1.60;99.90;;;;;;5117552;28;20199;-67
2024/02/05 06:11:20;;;;;;;1.02;1.02;;;-1.60;99.90;;;;;;5118944;28;20187;-67
2024/02/05 06:13:46;;;;;;;0.80;0.80;;;-1.60;99.90;;;;;;5116596;28;20198;-68
2024/02/05 06:16:12;;;;;;;0.80;0.80;;;-1.70;99.90;;;;;;5115887;28;20262;-67
2024/02/05 06:18:37;;;;;;;0.70;0.70;;;-1.70;99.90;;;;;;5115758;28;20575;-67
2024/02/05 06:21:06;;;;;;;0.75;0.75;;;-1.70;99.90;;;;;;5097407;28;20213;-68
2024/02/05 06:23:32;;;;;;;0.80;0.80;;;-1.50;99.90;;;;;;5115604;28;20188;-68
2024/02/05 06:25:59;;;;;;;0.73;0.73;;;-1.50;99.90;;;;;;5115488;28;20271;-67
2024/02/05 06:28:25;;;;;;;0.80;0.80;;;-1.60;99.90;;;;;;5115433;28;20261;-68
2024/02/05 06:30:51;;;;;;;0.80;0.80;;;-1.70;99.90;;;;;;5115610;28;20593;-67
2024/02/05 06:33:17;;;;;;;0.90;0.90;;;-1.80;99.90;;;;;;5115452;28;20198;-67
2024/02/05 06:35:43;;;;;;;0.68;0.68;;;-1.90;99.90;;;;;;5115398;28;20207;-67
2024/02/05 06:38:10;;;;;;;1.00;1.00;;;-1.90;99.90;;;;;;5115333;28;20196;-68
2024/02/05 06:40:39;;;;;;;0.70;0.70;;;-2.00;99.90;;;;;;5111413;28;20242;-68
2024/02/05 06:43:08;;;;;;;0.80;0.80;;;-2.00;99.90;;;;;;5094977;28;20192;-67
2024/02/05 06:45:37;;;;;;;0.65;0.65;;;-2.10;99.90;;;;;;5094694;28;20196;-67
2024/02/05 06:48:04;;;;;;;0.70;0.70;;;-2.30;99.90;;;;;;5094971;28;20602;-67
2024/02/05 06:50:30;;;;;;;0.73;0.73;;;-2.40;99.90;;;;;;5094978;28;20257;-67
2024/02/05 06:52:55;;;;;;;0.70;0.70;;;-2.60;99.90;;;;;;5094835;28;20643;-67
2024/02/05 06:55:21;;;;;;;0.68;0.68;;;-2.70;99.90;;;;;;5094408;28;20224;-68
2024/02/05 06:57:48;;;;;;;0.80;0.80;;;-2.80;99.90;;;;;;5094720;28;20283;-67
2024/02/05 07:00:14;;;;;;;0.70;0.70;;;-2.90;99.90;;;;;;5103894;28;20245;-68
2024/02/05 07:02:40;;;;;;;0.80;0.80;;;-3.00;99.90;;;;;;5114853;28;20669;-67
2024/02/05 07:05:06;;;;;;;0.70;0.70;;;-3.10;99.90;;;;;;5114587;28;20258;-67
2024/02/05 07:07:32;;;;;;;0.77;0.77;;;-3.20;99.90;;;;;;5114821;28;20708;-67
2024/02/05 07:10:00;;;;;;;0.80;0.80;;;-3.30;99.90;;;;;;5114892;28;20270;-67
2024/02/05 07:12:25;;;;;;;0.70;0.70;;;-3.30;99.90;;;;;;5114474;28;20187;-67
2024/02/05 07:14:51;;;;;;;1.00;1.00;;;-3.30;99.90;;;;;;5114743;28;20195;-67
2024/02/05 07:17:17;;;;;;;0.90;0.90;;;-3.40;99.90;;;;;;5096489;28;20222;-67
2024/02/05 07:19:43;;;;;;;0.82;0.82;;;-3.30;99.90;;;;;;5114683;28;20250;-68
2024/02/05 07:22:09;;;;;;;0.80;0.80;;;-3.30;99.90;;;;;;5114644;28;20750;-68
2024/02/05 07:24:35;;;;;;;0.80;0.80;;;-3.30;99.90;;;;;;5113895;28;20192;-68
2024/02/05 07:27:03;;;;;;;0.90;0.90;;;-3.40;99.90;;;;;;5113633;28;20666;-68
2024/02/05 07:29:39;;;;;;;0.90;0.90;;;-3.40;99.90;;;;;;5115205;28;20200;-69
2024/02/05 07:32:05;;;;;;;0.88;0.88;;;-3.40;99.90;;;;;;5114237;28;20694;-69
2024/02/05 07:34:31;;;;;;;0.80;0.80;;;-3.40;99.90;;;;;;5095977;28;20291;-68
2024/02/05 07:36:56;;;;;;;0.90;0.90;;;-3.40;99.90;;;;;;5114326;28;20206;-67
2024/02/05 07:39:22;;;;;;;0.73;0.73;;;-3.50;99.90;;;;;;5095705;28;20223;-68
2024/02/05 07:41:48;;;;;;;0.95;0.95;;;-3.50;99.90;;;;;;5100350;28;20188;-66
2024/02/05 07:44:13;;;;;;;0.80;0.80;;;-3.50;99.90;;;;;;5093705;28;20552;-67
2024/02/05 07:46:40;;;;;;;1.00;1.00;;;-3.50;99.90;;;;;;5093625;28;20200;-66
2024/02/05 07:49:07;;;;;;;0.90;0.90;;;-3.60;99.90;;;;;;5093625;28;20748;-70
2024/02/05 07:51:33;;;;;;;0.90;0.90;;;-3.60;99.90;;;;;;5075225;28;20196;-69
2024/02/05 07:53:59;;;;;;;0.80;0.80;;;-3.60;99.90;;;;;;5093648;28;20192;-68
2024/02/05 07:56:24;;;;;;;0.80;0.80;;;-3.60;99.90;;;;;;5101662;28;20238;-69
2024/02/05 07:58:50;;;;;;;0.80;0.80;;;-3.60;99.90;;;;;;5113936;28;20195;-69
2024/02/05 08:01:16;;;;;;;0.95;0.95;;;-3.60;99.90;;;;;;5099800;28;20204;-69
2024/02/05 08:03:42;;;;;;;0.77;0.77;;;-3.60;99.90;;;;;;5093420;28;20195;-69
2024/02/05 08:06:08;;;;;;;0.70;0.70;;;-3.50;99.90;;;;;;5075175;28;20288;-68
2024/02/05 08:08:34;;;;;;;0.90;0.90;;;-3.40;99.90;;;;;;5093241;28;20180;-68
2024/02/05 08:10:59;;;;;;;0.70;0.70;;;-3.40;99.90;;;;;;5106963;28;20196;-69
2024/02/05 08:13:25;;;;;;;0.88;0.88;;;-3.30;99.90;;;;;;5113423;28;20630;-66
2024/02/05 08:15:50;;;;;;;0.80;0.80;;;-3.20;99.90;;;;;;5113857;28;20600;-66
2024/02/05 08:18:16;;;;;;;0.85;0.85;;;-3.10;99.90;;;;;;5113524;28;20562;-67
2024/02/05 08:20:42;;;;;;;0.80;0.80;;;-3.10;99.90;;;;;;5113285;28;20592;-67
2024/02/05 08:23:08;;;;;;;0.90;0.90;;;-3.10;99.90;;;;;;5095583;28;20192;-66
2024/02/05 08:25:34;;;;;;;0.80;0.80;;;-3.00;99.90;;;;;;5113017;28;20219;-66
2024/02/05 08:28:02;;;;;;;0.90;0.90;;;-2.90;99.90;;;;;;5113348;28;20196;-68
2024/02/05 08:30:28;;;;;;;0.85;0.85;;;-2.80;99.90;;;;;;5113362;28;20187;-69
2024/02/05 08:32:54;;;;;;;0.90;0.90;;;-2.70;99.90;;;;;;5113387;28;20195;-67
2024/02/05 08:35:19;;;;;;;0.80;0.80;;;-2.70;99.90;;;;;;5113064;28;20199;-67
2024/02/05 08:37:45;;;;;;;0.90;0.90;;;-2.60;99.90;;;;;;5112854;28;20241;-67
2024/02/05 08:40:11;;;;;;;0.93;0.93;;;-2.60;99.90;;;;;;5094636;28;20230;-68
2024/02/05 08:42:36;;;;;;;0.95;0.95;;;-2.50;99.90;;;;;;5112957;28;20651;-67
2024/02/05 08:45:02;;;;;;;0.70;0.70;;;-2.40;99.90;;;;;;5113125;28;20682;-68
2024/02/05 08:47:28;;;;;;;0.80;0.80;;;-2.30;99.90;;;;;;5112950;28;20278;-67
2024/02/05 08:49:54;;;;;;;0.80;0.80;;;-2.20;99.90;;;;;;5113059;28;20213;-68
2024/02/05 08:52:22;;;;;;;0.90;0.90;;;-2.10;99.90;;;;;;5112776;28;20245;-68
2024/02/05 08:54:48;;;;;;;0.80;0.80;;;-2.10;99.90;;;;;;5112791;28;20215;-68
2024/02/05 08:57:14;;;;;;;1.17;1.17;;;-2.10;99.90;;;;;;5112993;28;20265;-68
2024/02/05 08:59:40;;;;;;;0.85;0.85;;;-1.90;99.90;;;;;;5112639;28;20219;-67
2024/02/05 09:02:06;;;;;;;0.80;0.80;;;-1.80;99.90;;;;;;5112811;28;20188;-68
2024/02/05 09:04:33;;;;;;;0.80;0.80;;;-1.60;99.90;;;;;;5112705;28;20188;-68
2024/02/05 09:06:59;;;;;;;0.80;0.80;;;-1.50;99.90;;;;;;5112830;28;20732;-67
2024/02/05 09:09:24;;;;;;;0.88;0.88;;;-1.30;99.90;;;;;;5112590;28;20222;-68
2024/02/05 09:11:50;;;;;;;0.80;0.80;;;-1.20;99.90;;;;;;5112905;28;20187;-67
2024/02/05 09:14:16;;;;;;;0.88;0.88;;;-1.10;99.90;;;;;;5112967;28;20195;-67
2024/02/05 09:16:42;;;;;;;0.80;0.80;;;-1.00;99.90;;;;;;5112653;28;20704;-67
2024/02/05 09:19:07;;;;;;;0.75;0.75;;;-1.00;99.90;;;;;;5112773;28;20195;-68
2024/02/05 09:21:33;;;;;;;0.80;0.80;;;-0.80;99.90;;;;;;5112497;28;20199;-68
2024/02/05 09:23:59;;;;;;;0.80;0.80;;;-0.70;99.90;;;;;;5094450;28;20195;-68
2024/02/05 09:26:24;;;;;;;1.00;1.00;;;-0.60;99.90;;;;;;5112344;28;20192;-68
2024/02/05 09:28:50;;;;;;;0.80;0.80;;;-0.50;99.90;;;;;;5094548;28;20195;-67
2024/02/05 09:31:16;;;;;;;0.80;0.80;;;-0.40;99.90;;;;;;5112668;28;20219;-67
2024/02/05 09:33:41;;;;;;;0.70;0.70;;;-0.40;99.90;;;;;;5112596;28;20249;-67
2024/02/05 09:36:07;;;;;;;0.68;0.68;;;-0.30;99.90;;;;;;5112543;28;20192;-67
2024/02/05 09:38:33;;;;;;;0.95;0.95;;;-0.30;99.90;;;;;;5090383;28;20193;-68
2024/02/05 09:41:05;;;;;;;0.70;0.70;;;-0.10;99.90;;;;;;5093091;28;20204;-74
2024/02/05 09:43:33;;;;;;;0.80;0.80;;;0.10;99.90;;;;;;5092191;28;20197;-74
2024/02/05 09:46:14;;;;;;;0.70;0.70;;;0.30;99.90;;;;;;5092217;28;20215;-74
2024/02/05 09:48:42;;;;;;;0.60;0.60;;;0.30;99.90;;;;;;5099107;28;20201;-74
2024/02/05 09:51:11;;;;;;;0.70;0.70;;;0.50;99.90;;;;;;5116481;28;20199;-74
2024/02/05 09:53:40;;;;;;;0.60;0.60;;;0.70;99.90;;;;;;5116242;28;20188;-74
2024/02/05 09:56:07;;;;;;;0.60;0.60;;;0.70;99.90;;;;;;5116175;28;20266;-74
2024/02/05 09:58:33;;;;;;;0.80;0.80;;;0.60;99.90;;;;;;5116176;28;20668;-74
2024/02/05 10:00:58;;;;;;;1.13;0.88;;;0.60;99.90;;;;;;5098134;28;20302;-74
2024/02/05 10:03:29;;;;;;;0.80;0.80;;;0.60;99.90;;;;;;5116030;28;20223;-74
2024/02/05 10:05:59;;;;;;;1.02;0.93;;;0.80;99.90;;;;;;5116117;28;20810;-74
2024/02/05 10:08:27;;;;;;;0.70;0.70;;;0.90;99.90;;;;;;5097620;28;20203;-74
2024/02/05 10:10:56;;;;;;;0.70;0.70;;;1.00;99.90;;;;;;5116117;28;20191;-74
2024/02/05 10:13:22;;;;;;;0.80;0.80;;;1.00;99.90;;;;;;5115873;28;20196;-74
2024/02/05 10:15:48;;;;;;;0.68;0.68;;;1.20;99.90;;;;;;5115961;28;20195;-74
2024/02/05 10:18:14;;;;;;;0.70;0.70;;;1.30;99.90;;;;;;5115909;28;20194;-74
2024/02/05 10:20:41;;;;;;;1.77;1.67;;;1.40;99.90;;;;;;5115674;28;20248;-73
2024/02/05 10:23:07;;;;;;;0.77;0.77;;;1.60;99.90;;;;;;5115940;28;20548;-73
2024/02/05 10:25:33;;;;;;;0.68;0.68;;;1.80;99.90;;;;;;5115410;28;20180;-73
2024/02/05 10:28:03;;;;;;;0.80;0.80;;;1.80;99.90;;;;;;5115726;28;20183;-75
2024/02/05 10:30:30;;;;;;;0.70;0.70;;;1.70;99.90;;;;;;5096990;28;20195;-74
2024/02/05 10:32:57;;;;;;;0.80;0.80;;;1.80;99.90;;;;;;5113323;28;20244;-74
2024/02/05 10:35:23;;;;;;;0.80;0.80;;;1.90;99.90;;;;;;5094849;28;20196;-74
2024/02/05 10:37:49;;;;;;;0.60;0.60;;;1.90;99.90;;;;;;5095150;28;20672;-74
2024/02/05 10:40:15;;;;;;;0.77;0.77;;;1.90;99.90;;;;;;5094983;28;20264;-74
2024/02/05 10:42:42;;;;;;;0.70;0.70;;;1.90;99.90;;;;;;5094945;28;20195;-74
2024/02/05 10:45:08;;;;;;;0.70;0.70;;;1.80;99.90;;;;;;5102938;28;20202;-74
2024/02/05 10:47:36;;;;;;;0.60;0.60;;;1.90;99.90;;;;;;5115135;28;20196;-75
2024/02/05 10:50:03;;;;;;;0.70;0.70;;;2.20;99.90;;;;;;5115550;28;20664;-68
2024/02/05 10:52:29;;;;;;;0.60;0.60;;;2.50;99.90;;;;;;5114936;28;20192;-68
2024/02/05 10:54:58;;;;;;;0.70;0.70;;;2.40;99.90;;;;;;5115002;28;20713;-68
2024/02/05 10:57:26;;;;;;;0.70;0.70;;;2.60;99.90;;;;;;5114932;28;20192;-69
2024/02/05 10:59:52;;;;;;;0.50;0.50;;;2.50;99.90;;;;;;5114839;28;20663;-68
2024/02/05 11:02:35;;;;;;;0.57;0.57;;;2.50;99.90;;;;;;5115015;28;20196;-69
2024/02/05 11:05:02;;;;;;;0.65;0.65;;;2.60;99.90;;;;;;5115125;28;20652;-68
2024/02/05 11:07:35;;;;;;;0.60;0.60;;;2.60;99.90;;;;;;5096311;28;20215;-68
2024/02/05 11:10:04;;;;;;;0.80;0.80;;;2.80;99.90;;;;;;5114931;28;20267;-68
2024/02/05 11:12:32;;;;;;;0.60;0.60;;;2.80;99.90;;;;;;5114733;28;20562;-69
2024/02/05 11:15:04;;;;;;;0.65;0.65;;;2.80;99.90;;;;;;5114858;28;20199;-68
2024/02/05 11:17:35;;;;;;;0.70;0.70;;;2.70;99.90;;;;;;5114689;28;20196;-69
2024/02/05 11:20:04;;;;;;;0.70;0.70;;;2.60;99.90;;;;;;5114761;28;20298;-68
2024/02/05 11:22:31;;;;;;;0.65;0.65;;;2.50;99.90;;;;;;5114583;28;20643;-68
2024/02/05 11:24:57;;;;;;;0.65;0.65;;;2.70;99.90;;;;;;5114689;28;20244;-69
2024/02/05 11:27:23;;;;;;;0.60;0.60;;;2.60;99.90;;;;;;5114155;28;20191;-70
2024/02/05 11:29:51;;;;;;;0.60;0.60;;;2.70;99.90;;;;;;5106389;28;20220;-69
2024/02/05 11:32:16;;;;;;;0.60;0.60;;;2.80;99.90;;;;;;5094383;28;20220;-68
2024/02/05 11:34:42;;;;;;;0.60;0.60;;;3.00;99.90;;;;;;5093820;28;20235;-69
2024/02/05 11:37:23;;;;;;;0.70;0.70;;;3.10;99.90;;;;;;5093946;28;20203;-68
2024/02/05 11:39:51;;;;;;;0.60;0.60;;;3.00;99.90;;;;;;5093928;28;20210;-68
2024/02/05 11:42:20;;;;;;;0.52;0.52;;;3.10;99.90;;;;;;5109654;28;20192;-69
2024/02/05 11:44:49;;;;;;;0.70;0.70;;;3.40;99.90;;;;;;5114214;28;20567;-68
2024/02/05 11:47:15;;;;;;;0.60;0.60;;;3.40;99.90;;;;;;5114254;28;20187;-68
2024/02/05 11:49:44;;;;;;;0.70;0.70;;;3.10;99.90;;;;;;5095800;28;20282;-69
2024/02/05 11:52:09;;;;;;;0.70;0.70;;;2.70;99.90;;;;;;5113995;28;20278;-68
2024/02/05 11:54:35;;;;;;;0.50;0.50;;;2.40;99.90;;;;;;5113754;28;20290;-69
2024/02/05 11:57:01;;;;;;;0.80;0.80;;;2.10;99.90;;;;;;5095747;28;20195;-68
2024/02/05 11:59:27;;;;;;;0.80;0.80;;;1.90;99.90;;;;;;5113806;28;20685;-69
2024/02/05 12:01:53;;;;;;;0.73;0.73;;;1.90;99.90;;;;;;5113843;28;20218;-69
2024/02/05 12:04:19;;;;;;;0.70;0.70;;;1.80;99.90;;;;;;5095519;28;20675;-69
2024/02/05 12:06:49;;;;;;;0.60;0.60;;;2.00;99.90;;;;;;5113745;28;20275;-68
2024/02/05 12:09:16;;;;;;;0.80;0.80;;;2.20;99.90;;;;;;5113849;28;20663;-69
2024/02/05 12:11:42;;;;;;;0.70;0.70;;;2.20;99.90;;;;;;5112827;28;20211;-69
2024/02/05 12:14:10;;;;;;;0.70;0.70;;;2.10;99.90;;;;;;5113721;28;20607;-68
2024/02/05 12:16:37;;;;;;;0.77;0.77;;;2.00;99.90;;;;;;5095102;28;20207;-68
2024/02/05 12:19:03;;;;;;;0.70;0.70;;;1.90;99.90;;;;;;5113476;28;20662;-68
2024/02/05 12:21:31;;;;;;;0.60;0.60;;;1.80;99.90;;;;;;5113280;28;20199;-68
2024/02/05 12:23:57;;;;;;;0.70;0.70;;;1.60;99.90;;;;;;5095347;28;20534;-69
2024/02/05 12:26:24;;;;;;;0.77;0.77;;;1.40;99.90;;;;;;5102536;28;20248;-69
2024/02/05 12:28:51;;;;;;;0.70;0.70;;;1.20;99.90;;;;;;5074890;28;20188;-69
2024/02/05 12:31:21;;;;;;;0.63;0.63;;;0.90;99.90;;;;;;5093119;28;20671;-68
2024/02/05 12:33:56;;;;;;;0.63;0.63;;;0.80;99.90;;;;;;5092937;28;20655;-69
2024/02/05 12:36:22;;;;;;;0.80;0.80;;;0.90;99.90;;;;;;5092700;28;20274;-69
2024/02/05 12:38:48;;;;;;;0.80;0.80;;;0.80;99.90;;;;;;5110910;28;20195;-69
2024/02/05 12:41:13;;;;;;;0.70;0.70;;;0.80;99.90;;;;;;5094909;28;20230;-69
2024/02/05 12:43:39;;;;;;;0.70;0.70;;;1.00;99.90;;;;;;5094800;28;20557;-69
2024/02/05 12:46:05;;;;;;;0.60;0.60;;;0.80;99.90;;;;;;5113125;28;20330;-69
2024/02/05 12:48:32;;;;;;;0.70;0.70;;;0.70;99.90;;;;;;5113050;28;20665;-68
2024/02/05 12:50:59;;;;;;;0.70;0.70;;;0.50;99.90;;;;;;5113149;28;20689;-68
2024/02/05 12:53:24;;;;;;;0.80;0.80;;;0.40;99.90;;;;;;5112930;28;20334;-70
2024/02/05 12:55:50;;;;;;;0.70;0.70;;;0.50;99.90;;;;;;5112934;28;20227;-69